sensor_id;sensor_type;location;lat;lon;timestamp;pressure;altitude;pressure_sealevel;temperature;humidity
30598;BME280;17365;48.878;8.334;2023-04-26T00:02:01;100237.69;;;7.36;100.00
30598;BME280;17365;48.878;8.334;2023-04-26T00:04:28;100232.69;;;7.46;100.00
30598;BME280;17365;48.878;8.334;2023-04-26T00:06:54;100235.47;;;7.06;100.00
30598;BME280;17365;48.878;8.334;2023-04-26T00:09:19;100234.59;;;7.05;100.00
30598;BME280;17365;48.878;8.334;2023-04-26T00:11:45;100237.72;;;6.89;100.00
30598;BME280;17365;48.878;8.334;2023-04-26T00:14:10;100228.06;;;6.79;100.00
30598;BME280;17365;48.878;8.334;2023-04-26T00:16:35;100227.75;;;7.07;100.00
30598;BME280;17365;48.878;8.334;2023-04-26T00:19:01;100227.50;;;7.43;100.00
30598;BME280;17365;48.878;8.334;2023-04-26T00:21:26;100222.50;;;7.54;100.00
30598;BME280;17365;48.878;8.334;2023-04-26T00:23:52;100234.59;;;7.56;100.00
30598;BME280;17365;48.878;8.334;2023-04-26T00:26:17;100228.34;;;7.42;100.00
30598;BME280;17365;48.878;8.334;2023-04-26T00:28:42;100229.56;;;7.66;100.00
30598;BME280;17365;48.878;8.334;2023-04-26T00:31:12;100225.09;;;7.55;100.00
30598;BME280;17365;48.878;8.334;2023-04-26T00:33:37;100231.63;;;7.34;100.00
30598;BME280;17365;48.878;8.334;2023-04-26T00:36:03;100229.06;;;7.35;100.00
30598;BME280;17365;48.878;8.334;2023-04-26T00:38:28;100228.50;;;7.01;100.00
30598;BME280;17365;48.878;8.334;2023-04-26T00:40:53;100225.03;;;6.99;100.00
30598;BME280;17365;48.878;8.334;2023-04-26T00:43:18;100225.53;;;7.27;100.00
30598;BME280;17365;48.878;8.334;2023-04-26T00:45:44;100219.72;;;7.42;100.00
30598;BME280;17365;48.878;8.334;2023-04-26T00:48:09;100226.09;;;7.11;100.00
30598;BME280;17365;48.878;8.334;2023-04-26T00:50:35;100227.97;;;7.21;100.00
30598;BME280;17365;48.878;8.334;2023-04-26T00:53:01;100219.47;;;7.25;100.00
30598;BME280;17365;48.878;8.334;2023-04-26T00:55:26;100220.72;;;7.50;100.00
30598;BME280;17365;48.878;8.334;2023-04-26T00:57:52;100219.09;;;7.55;100.00
30598;BME280;17365;48.878;8.334;2023-04-26T01:00:17;100226.97;;;7.64;100.00
30598;BME280;17365;48.878;8.334;2023-04-26T01:02:43;100220.94;;;7.64;100.00
30598;BME280;17365;48.878;8.334;2023-04-26T01:05:08;100231.13;;;7.56;100.00
30598;BME280;17365;48.878;8.334;2023-04-26T01:07:34;100220.38;;;7.81;100.00
30598;BME280;17365;48.878;8.334;2023-04-26T01:10:00;100228.00;;;7.74;100.00
30598;BME280;17365;48.878;8.334;2023-04-26T01:12:26;100222.00;;;7.76;100.00
30598;BME280;17365;48.878;8.334;2023-04-26T01:14:52;100224.59;;;7.79;100.00
30598;BME280;17365;48.878;8.334;2023-04-26T01:17:17;100228.06;;;7.80;100.00
30598;BME280;17365;48.878;8.334;2023-04-26T01:19:47;100222.69;;;7.65;100.00
30598;BME280;17365;48.878;8.334;2023-04-26T01:22:12;100222.16;;;7.88;100.00
30598;BME280;17365;48.878;8.334;2023-04-26T01:24:37;100229.31;;;8.06;100.00
30598;BME280;17365;48.878;8.334;2023-04-26T01:27:04;100226.72;;;8.05;100.00
30598;BME280;17365;48.878;8.334;2023-04-26T01:29:29;100220.63;;;8.03;100.00
30598;BME280;17365;48.878;8.334;2023-04-26T01:31:55;100216.13;;;7.88;100.00
30598;BME280;17365;48.878;8.334;2023-04-26T01:34:23;100209.94;;;7.77;100.00
30598;BME280;17365;48.878;8.334;2023-04-26T01:36:48;100222.56;;;7.58;100.00
30598;BME280;17365;48.878;8.334;2023-04-26T01:39:14;100223.50;;;7.61;100.00
30598;BME280;17365;48.878;8.334;2023-04-26T01:41:39;100222.53;;;7.55;100.00
30598;BME280;17365;48.878;8.334;2023-04-26T01:44:05;100223.91;;;7.35;100.00
30598;BME280;17365;48.878;8.334;2023-04-26T01:46:30;100228.81;;;7.18;100.00
30598;BME280;17365;48.878;8.334;2023-04-26T01:48:55;100224.56;;;7.22;100.00
30598;BME280;17365;48.878;8.334;2023-04-26T01:51:21;100223.41;;;7.05;100.00
30598;BME280;17365;48.878;8.334;2023-04-26T01:53:46;100229.41;;;7.04;100.00
30598;BME280;17365;48.878;8.334;2023-04-26T01:56:11;100228.34;;;6.92;100.00
30598;BME280;17365;48.878;8.334;2023-04-26T01:58:36;100219.94;;;7.03;100.00
30598;BME280;17365;48.878;8.334;2023-04-26T02:01:06;100220.03;;;7.09;100.00
30598;BME280;17365;48.878;8.334;2023-04-26T02:03:31;100225.81;;;6.95;100.00
30598;BME280;17365;48.878;8.334;2023-04-26T02:05:56;100230.31;;;7.07;100.00
30598;BME280;17365;48.878;8.334;2023-04-26T02:08:22;100228.34;;;6.92;100.00
30598;BME280;17365;48.878;8.334;2023-04-26T02:10:47;100228.19;;;6.83;100.00
30598;BME280;17365;48.878;8.334;2023-04-26T02:13:13;100220.75;;;7.01;100.00
30598;BME280;17365;48.878;8.334;2023-04-26T02:15:38;100223.97;;;6.88;100.00
30598;BME280;17365;48.878;8.334;2023-04-26T02:18:03;100232.25;;;6.28;100.00
30598;BME280;17365;48.878;8.334;2023-04-26T02:20:29;100227.56;;;6.53;100.00
30598;BME280;17365;48.878;8.334;2023-04-26T02:22:54;100224.38;;;6.64;100.00
30598;BME280;17365;48.878;8.334;2023-04-26T02:25:20;100228.38;;;6.49;100.00
30598;BME280;17365;48.878;8.334;2023-04-26T02:27:45;100226.19;;;6.68;100.00
30598;BME280;17365;48.878;8.334;2023-04-26T02:30:10;100231.88;;;6.54;100.00
30598;BME280;17365;48.878;8.334;2023-04-26T02:32:36;100232.66;;;6.09;100.00
30598;BME280;17365;48.878;8.334;2023-04-26T02:35:01;100241.63;;;6.25;100.00
30598;BME280;17365;48.878;8.334;2023-04-26T02:37:26;100237.97;;;6.15;100.00
30598;BME280;17365;48.878;8.334;2023-04-26T02:39:51;100233.94;;;6.28;100.00
30598;BME280;17365;48.878;8.334;2023-04-26T02:42:17;100240.50;;;6.12;100.00
30598;BME280;17365;48.878;8.334;2023-04-26T02:44:42;100238.19;;;5.88;100.00
30598;BME280;17365;48.878;8.334;2023-04-26T02:47:07;100238.53;;;6.00;100.00
30598;BME280;17365;48.878;8.334;2023-04-26T02:49:32;100241.47;;;5.81;100.00
30598;BME280;17365;48.878;8.334;2023-04-26T02:51:58;100237.56;;;5.97;100.00
30598;BME280;17365;48.878;8.334;2023-04-26T02:54:23;100236.13;;;6.09;100.00
30598;BME280;17365;48.878;8.334;2023-04-26T02:56:48;100240.91;;;5.93;100.00
30598;BME280;17365;48.878;8.334;2023-04-26T02:59:13;100237.19;;;5.81;100.00
30598;BME280;17365;48.878;8.334;2023-04-26T03:01:38;100235.50;;;5.46;100.00
30598;BME280;17365;48.878;8.334;2023-04-26T03:04:03;100236.19;;;5.40;100.00
30598;BME280;17365;48.878;8.334;2023-04-26T03:06:29;100231.81;;;5.36;100.00
30598;BME280;17365;48.878;8.334;2023-04-26T03:08:54;100238.84;;;5.43;100.00
30598;BME280;17365;48.878;8.334;2023-04-26T03:11:19;100234.88;;;5.56;100.00
30598;BME280;17365;48.878;8.334;2023-04-26T03:13:44;100229.53;;;5.48;100.00
30598;BME280;17365;48.878;8.334;2023-04-26T03:16:09;100225.56;;;5.26;100.00
30598;BME280;17365;48.878;8.334;2023-04-26T03:18:35;100225.06;;;5.07;100.00
30598;BME280;17365;48.878;8.334;2023-04-26T03:21:01;100225.63;;;4.95;100.00
30598;BME280;17365;48.878;8.334;2023-04-26T03:23:26;100219.63;;;5.29;100.00
30598;BME280;17365;48.878;8.334;2023-04-26T03:25:52;100218.34;;;5.12;100.00
30598;BME280;17365;48.878;8.334;2023-04-26T03:28:17;100225.34;;;5.17;100.00
30598;BME280;17365;48.878;8.334;2023-04-26T03:30:43;100219.97;;;5.08;100.00
30598;BME280;17365;48.878;8.334;2023-04-26T03:33:08;100222.94;;;4.90;100.00
30598;BME280;17365;48.878;8.334;2023-04-26T03:35:33;100229.66;;;4.85;100.00
30598;BME280;17365;48.878;8.334;2023-04-26T03:37:58;100226.38;;;4.91;100.00
30598;BME280;17365;48.878;8.334;2023-04-26T03:40:23;100237.22;;;5.12;100.00
30598;BME280;17365;48.878;8.334;2023-04-26T03:42:49;100241.88;;;4.94;100.00
30598;BME280;17365;48.878;8.334;2023-04-26T03:45:14;100228.19;;;4.95;100.00
30598;BME280;17365;48.878;8.334;2023-04-26T03:47:39;100235.63;;;4.84;100.00
30598;BME280;17365;48.878;8.334;2023-04-26T03:50:05;100235.31;;;5.05;100.00
30598;BME280;17365;48.878;8.334;2023-04-26T03:52:30;100234.97;;;5.24;100.00
30598;BME280;17365;48.878;8.334;2023-04-26T03:54:56;100231.44;;;5.21;100.00
30598;BME280;17365;48.878;8.334;2023-04-26T03:57:21;100228.34;;;5.34;100.00
30598;BME280;17365;48.878;8.334;2023-04-26T03:59:46;100235.06;;;5.29;100.00
30598;BME280;17365;48.878;8.334;2023-04-26T04:02:13;100228.41;;;5.37;100.00
30598;BME280;17365;48.878;8.334;2023-04-26T04:04:38;100226.50;;;5.30;100.00
30598;BME280;17365;48.878;8.334;2023-04-26T04:07:03;100225.38;;;5.19;100.00
30598;BME280;17365;48.878;8.334;2023-04-26T04:09:28;100220.69;;;5.37;100.00
30598;BME280;17365;48.878;8.334;2023-04-26T04:11:54;100221.53;;;5.36;100.00
30598;BME280;17365;48.878;8.334;2023-04-26T04:14:19;100230.22;;;5.07;100.00
30598;BME280;17365;48.878;8.334;2023-04-26T04:16:44;100235.06;;;4.96;100.00
30598;BME280;17365;48.878;8.334;2023-04-26T04:19:10;100236.41;;;4.82;100.00
30598;BME280;17365;48.878;8.334;2023-04-26T04:21:35;100233.81;;;4.80;100.00
30598;BME280;17365;48.878;8.334;2023-04-26T04:24:00;100236.88;;;4.99;100.00
30598;BME280;17365;48.878;8.334;2023-04-26T04:26:26;100233.81;;;4.80;100.00
30598;BME280;17365;48.878;8.334;2023-04-26T04:28:52;100238.44;;;4.62;100.00
30598;BME280;17365;48.878;8.334;2023-04-26T04:31:17;100239.31;;;4.94;100.00
30598;BME280;17365;48.878;8.334;2023-04-26T04:33:42;100240.09;;;4.91;100.00
30598;BME280;17365;48.878;8.334;2023-04-26T04:36:08;100241.25;;;5.03;100.00
30598;BME280;17365;48.878;8.334;2023-04-26T04:38:33;100241.56;;;4.82;100.00
30598;BME280;17365;48.878;8.334;2023-04-26T04:40:59;100246.44;;;4.73;100.00
30598;BME280;17365;48.878;8.334;2023-04-26T04:43:25;100248.50;;;4.86;100.00
30598;BME280;17365;48.878;8.334;2023-04-26T04:45:50;100248.63;;;4.89;100.00
30598;BME280;17365;48.878;8.334;2023-04-26T04:48:15;100250.75;;;5.05;100.00
30598;BME280;17365;48.878;8.334;2023-04-26T04:50:40;100252.56;;;4.76;100.00
30598;BME280;17365;48.878;8.334;2023-04-26T04:53:09;100256.66;;;4.70;100.00
30598;BME280;17365;48.878;8.334;2023-04-26T04:55:34;100259.28;;;4.73;100.00
30598;BME280;17365;48.878;8.334;2023-04-26T04:58:00;100255.19;;;4.79;100.00
30598;BME280;17365;48.878;8.334;2023-04-26T05:00:25;100262.75;;;4.43;100.00
30598;BME280;17365;48.878;8.334;2023-04-26T05:02:51;100268.97;;;4.51;100.00
30598;BME280;17365;48.878;8.334;2023-04-26T05:05:16;100262.00;;;4.77;100.00
30598;BME280;17365;48.878;8.334;2023-04-26T05:07:41;100266.66;;;5.23;100.00
30598;BME280;17365;48.878;8.334;2023-04-26T05:10:07;100268.91;;;5.11;100.00
30598;BME280;17365;48.878;8.334;2023-04-26T05:12:32;100270.66;;;5.45;98.72
30598;BME280;17365;48.878;8.334;2023-04-26T05:14:59;100267.09;;;5.76;97.23
30598;BME280;17365;48.878;8.334;2023-04-26T05:17:24;100269.84;;;5.84;96.22
30598;BME280;17365;48.878;8.334;2023-04-26T05:19:49;100261.69;;;6.00;96.42
30598;BME280;17365;48.878;8.334;2023-04-26T05:22:15;100268.94;;;6.18;95.17
30598;BME280;17365;48.878;8.334;2023-04-26T05:24:45;100265.81;;;6.74;94.01
30598;BME280;17365;48.878;8.334;2023-04-26T05:27:11;100265.31;;;6.91;92.25
30598;BME280;17365;48.878;8.334;2023-04-26T05:29:36;100283.94;;;6.78;92.02
30598;BME280;17365;48.878;8.334;2023-04-26T05:32:01;100278.34;;;7.00;91.18
30598;BME280;17365;48.878;8.334;2023-04-26T05:34:27;100276.97;;;7.19;89.53
30598;BME280;17365;48.878;8.334;2023-04-26T05:36:53;100271.16;;;6.84;90.88
30598;BME280;17365;48.878;8.334;2023-04-26T05:39:18;100270.41;;;7.37;90.96
30598;BME280;17365;48.878;8.334;2023-04-26T05:41:44;100268.34;;;7.69;89.28
30598;BME280;17365;48.878;8.334;2023-04-26T05:44:09;100266.66;;;7.19;89.19
30598;BME280;17365;48.878;8.334;2023-04-26T05:46:35;100268.16;;;7.58;89.64
30598;BME280;17365;48.878;8.334;2023-04-26T05:49:00;100266.38;;;8.10;88.00
30598;BME280;17365;48.878;8.334;2023-04-26T05:51:25;100275.97;;;8.17;87.05
30598;BME280;17365;48.878;8.334;2023-04-26T05:53:50;100285.81;;;7.32;89.15
30598;BME280;17365;48.878;8.334;2023-04-26T05:56:15;100287.81;;;7.01;92.15
30598;BME280;17365;48.878;8.334;2023-04-26T05:58:41;100289.84;;;6.72;92.59
30598;BME280;17365;48.878;8.334;2023-04-26T06:01:06;100287.78;;;6.16;97.41
30598;BME280;17365;48.878;8.334;2023-04-26T06:03:32;100302.31;;;6.12;96.51
30598;BME280;17365;48.878;8.334;2023-04-26T06:05:57;100298.97;;;6.18;98.31
30598;BME280;17365;48.878;8.334;2023-04-26T06:08:23;100301.31;;;6.88;94.60
30598;BME280;17365;48.878;8.334;2023-04-26T06:10:48;100300.97;;;6.31;97.07
30598;BME280;17365;48.878;8.334;2023-04-26T06:13:13;100307.25;;;7.28;94.53
30598;BME280;17365;48.878;8.334;2023-04-26T06:15:38;100311.28;;;6.70;95.73
30598;BME280;17365;48.878;8.334;2023-04-26T06:18:04;100312.25;;;7.20;95.46
30598;BME280;17365;48.878;8.334;2023-04-26T06:20:30;100306.63;;;7.43;92.86
30598;BME280;17365;48.878;8.334;2023-04-26T06:22:55;100306.25;;;7.21;92.96
30598;BME280;17365;48.878;8.334;2023-04-26T06:25:20;100305.53;;;7.80;91.59
30598;BME280;17365;48.878;8.334;2023-04-26T06:27:45;100299.97;;;8.08;88.65
30598;BME280;17365;48.878;8.334;2023-04-26T06:30:10;100298.66;;;7.80;88.44
30598;BME280;17365;48.878;8.334;2023-04-26T06:32:37;100300.22;;;8.27;89.17
30598;BME280;17365;48.878;8.334;2023-04-26T06:35:02;100300.66;;;7.97;89.50
30598;BME280;17365;48.878;8.334;2023-04-26T06:37:27;100303.72;;;8.29;89.12
30598;BME280;17365;48.878;8.334;2023-04-26T06:39:53;100303.94;;;8.44;88.81
30598;BME280;17365;48.878;8.334;2023-04-26T06:42:18;100300.53;;;7.91;91.68
30598;BME280;17365;48.878;8.334;2023-04-26T06:44:44;100300.13;;;7.65;91.46
30598;BME280;17365;48.878;8.334;2023-04-26T06:47:09;100295.19;;;7.78;92.85
30598;BME280;17365;48.878;8.334;2023-04-26T06:49:35;100292.34;;;8.16;90.46
30598;BME280;17365;48.878;8.334;2023-04-26T06:52:00;100295.03;;;8.27;88.93
30598;BME280;17365;48.878;8.334;2023-04-26T06:54:29;100291.06;;;7.91;87.90
30598;BME280;17365;48.878;8.334;2023-04-26T06:56:54;100291.44;;;8.79;86.75
30598;BME280;17365;48.878;8.334;2023-04-26T06:59:19;100291.19;;;8.58;86.46
30598;BME280;17365;48.878;8.334;2023-04-26T07:01:45;100289.81;;;8.86;84.13
30598;BME280;17365;48.878;8.334;2023-04-26T07:04:10;100284.91;;;9.12;83.04
30598;BME280;17365;48.878;8.334;2023-04-26T07:06:36;100274.72;;;9.27;82.01
30598;BME280;17365;48.878;8.334;2023-04-26T07:09:02;100268.84;;;9.46;81.83
30598;BME280;17365;48.878;8.334;2023-04-26T07:11:28;100266.91;;;9.22;80.67
30598;BME280;17365;48.878;8.334;2023-04-26T07:13:53;100273.81;;;9.22;83.43
30598;BME280;17365;48.878;8.334;2023-04-26T07:16:19;100271.47;;;8.64;84.40
30598;BME280;17365;48.878;8.334;2023-04-26T07:18:44;100265.81;;;8.97;84.51
30598;BME280;17365;48.878;8.334;2023-04-26T07:21:12;100262.47;;;9.09;83.92
30598;BME280;17365;48.878;8.334;2023-04-26T07:23:37;100268.25;;;8.84;86.54
30598;BME280;17365;48.878;8.334;2023-04-26T07:26:02;100263.56;;;9.32;85.01
30598;BME280;17365;48.878;8.334;2023-04-26T07:28:30;100273.19;;;8.65;84.17
30598;BME280;17365;48.878;8.334;2023-04-26T07:30:56;100261.59;;;9.07;82.00
30598;BME280;17365;48.878;8.334;2023-04-26T07:33:22;100273.63;;;9.05;78.20
30598;BME280;17365;48.878;8.334;2023-04-26T07:35:54;100267.69;;;9.14;80.37
30598;BME280;17365;48.878;8.334;2023-04-26T07:38:20;100264.50;;;9.41;80.15
30598;BME280;17365;48.878;8.334;2023-04-26T07:40:45;100271.03;;;10.07;78.79
30598;BME280;17365;48.878;8.334;2023-04-26T07:43:11;100268.41;;;9.99;76.02
30598;BME280;17365;48.878;8.334;2023-04-26T07:45:37;100271.88;;;10.03;71.40
30598;BME280;17365;48.878;8.334;2023-04-26T07:48:02;100276.13;;;9.91;71.60
30598;BME280;17365;48.878;8.334;2023-04-26T07:50:27;100272.66;;;9.91;67.84
30598;BME280;17365;48.878;8.334;2023-04-26T07:52:53;100277.56;;;9.51;68.22
30598;BME280;17365;48.878;8.334;2023-04-26T07:55:18;100268.34;;;9.91;69.80
30598;BME280;17365;48.878;8.334;2023-04-26T07:57:43;100266.44;;;9.66;68.60
30598;BME280;17365;48.878;8.334;2023-04-26T08:00:08;100266.63;;;9.95;66.54
30598;BME280;17365;48.878;8.334;2023-04-26T08:02:34;100273.78;;;10.27;66.01
30598;BME280;17365;48.878;8.334;2023-04-26T08:05:00;100275.50;;;10.25;63.57
30598;BME280;17365;48.878;8.334;2023-04-26T08:07:25;100278.22;;;10.50;65.64
30598;BME280;17365;48.878;8.334;2023-04-26T08:09:50;100270.25;;;10.18;63.19
30598;BME280;17365;48.878;8.334;2023-04-26T08:12:16;100264.38;;;10.45;63.73
30598;BME280;17365;48.878;8.334;2023-04-26T08:14:41;100269.38;;;10.18;63.98
30598;BME280;17365;48.878;8.334;2023-04-26T08:17:06;100255.00;;;10.78;63.68
30598;BME280;17365;48.878;8.334;2023-04-26T08:19:33;100263.41;;;10.30;63.19
30598;BME280;17365;48.878;8.334;2023-04-26T08:21:58;100267.72;;;10.28;63.54
30598;BME280;17365;48.878;8.334;2023-04-26T08:24:24;100273.03;;;10.52;62.01
30598;BME280;17365;48.878;8.334;2023-04-26T08:26:49;100274.75;;;10.48;59.49
30598;BME280;17365;48.878;8.334;2023-04-26T08:29:14;100280.97;;;10.84;59.14
30598;BME280;17365;48.878;8.334;2023-04-26T08:31:40;100279.03;;;10.37;56.52
30598;BME280;17365;48.878;8.334;2023-04-26T08:34:05;100274.94;;;10.97;57.54
30598;BME280;17365;48.878;8.334;2023-04-26T08:36:35;100266.28;;;10.98;57.63
30598;BME280;17365;48.878;8.334;2023-04-26T08:39:00;100267.25;;;11.49;56.97
30598;BME280;17365;48.878;8.334;2023-04-26T08:41:25;100262.91;;;11.24;55.34
30598;BME280;17365;48.878;8.334;2023-04-26T08:43:51;100253.41;;;11.59;55.99
30598;BME280;17365;48.878;8.334;2023-04-26T08:46:18;100259.44;;;11.43;52.31
30598;BME280;17365;48.878;8.334;2023-04-26T08:48:43;100254.25;;;11.71;52.23
30598;BME280;17365;48.878;8.334;2023-04-26T08:51:10;100247.31;;;12.06;50.58
30598;BME280;17365;48.878;8.334;2023-04-26T08:53:36;100247.22;;;12.37;51.56
30598;BME280;17365;48.878;8.334;2023-04-26T08:56:03;100244.56;;;12.52;49.97
30598;BME280;17365;48.878;8.334;2023-04-26T08:58:28;100248.81;;;12.68;50.77
30598;BME280;17365;48.878;8.334;2023-04-26T09:00:54;100240.28;;;12.40;51.23
30598;BME280;17365;48.878;8.334;2023-04-26T09:03:21;100248.19;;;11.94;49.61
30598;BME280;17365;48.878;8.334;2023-04-26T09:05:47;100234.34;;;11.68;52.19
30598;BME280;17365;48.878;8.334;2023-04-26T09:08:16;100235.22;;;11.91;52.21
30598;BME280;17365;48.878;8.334;2023-04-26T09:10:42;100236.72;;;12.55;50.24
30598;BME280;17365;48.878;8.334;2023-04-26T09:13:07;100235.84;;;12.56;48.84
30598;BME280;17365;48.878;8.334;2023-04-26T09:15:33;100236.66;;;12.72;48.92
30598;BME280;17365;48.878;8.334;2023-04-26T09:20:46;100230.34;;;13.12;48.03
30598;BME280;17365;48.878;8.334;2023-04-26T09:23:25;100230.53;;;12.83;45.98
30598;BME280;17365;48.878;8.334;2023-04-26T09:25:50;100240.97;;;12.80;43.81
30598;BME280;17365;48.878;8.334;2023-04-26T09:28:19;100227.97;;;12.80;45.47
30598;BME280;17365;48.878;8.334;2023-04-26T09:30:45;100232.09;;;13.10;44.02
30598;BME280;17365;48.878;8.334;2023-04-26T09:33:10;100225.84;;;13.40;44.54
30598;BME280;17365;48.878;8.334;2023-04-26T09:35:36;100220.34;;;13.74;43.88
30598;BME280;17365;48.878;8.334;2023-04-26T09:38:02;100214.41;;;13.60;44.28
30598;BME280;17365;48.878;8.334;2023-04-26T09:40:28;100221.28;;;13.65;44.42
30598;BME280;17365;48.878;8.334;2023-04-26T09:42:58;100223.56;;;12.92;44.54
30598;BME280;17365;48.878;8.334;2023-04-26T09:45:24;100218.56;;;13.76;44.44
30598;BME280;17365;48.878;8.334;2023-04-26T09:47:49;100219.34;;;13.86;43.83
30598;BME280;17365;48.878;8.334;2023-04-26T09:50:24;100214.22;;;13.78;41.84
30598;BME280;17365;48.878;8.334;2023-04-26T09:52:50;100218.28;;;13.02;42.85
30598;BME280;17365;48.878;8.334;2023-04-26T09:55:24;100222.31;;;13.45;41.86
30598;BME280;17365;48.878;8.334;2023-04-26T09:57:51;100219.69;;;13.46;41.37
30598;BME280;17365;48.878;8.334;2023-04-26T10:00:17;100217.00;;;14.44;42.03
30598;BME280;17365;48.878;8.334;2023-04-26T10:02:42;100215.66;;;14.79;40.55
30598;BME280;17365;48.878;8.334;2023-04-26T10:05:07;100220.59;;;13.44;40.68
30598;BME280;17365;48.878;8.334;2023-04-26T10:07:33;100213.25;;;13.88;41.29
30598;BME280;17365;48.878;8.334;2023-04-26T10:09:59;100213.00;;;13.15;40.52
30598;BME280;17365;48.878;8.334;2023-04-26T10:12:25;100215.44;;;13.39;40.58
30598;BME280;17365;48.878;8.334;2023-04-26T10:14:50;100203.91;;;13.66;41.62
30598;BME280;17365;48.878;8.334;2023-04-26T10:17:15;100214.63;;;13.31;40.30
30598;BME280;17365;48.878;8.334;2023-04-26T10:19:42;100206.75;;;13.38;43.98
30598;BME280;17365;48.878;8.334;2023-04-26T10:22:14;100203.56;;;12.91;44.75
30598;BME280;17365;48.878;8.334;2023-04-26T10:24:41;100206.31;;;12.66;45.67
30598;BME280;17365;48.878;8.334;2023-04-26T10:27:07;100211.63;;;12.49;45.40
30598;BME280;17365;48.878;8.334;2023-04-26T10:30:04;100204.16;;;13.38;44.37
30598;BME280;17365;48.878;8.334;2023-04-26T10:32:21;100212.88;;;13.33;42.30
30598;BME280;17365;48.878;8.334;2023-04-26T10:37:30;100191.94;;;14.28;42.00
30598;BME280;17365;48.878;8.334;2023-04-26T10:40:22;100193.78;;;14.18;41.58
30598;BME280;17365;48.878;8.334;2023-04-26T10:42:44;100201.78;;;14.03;40.97
30598;BME280;17365;48.878;8.334;2023-04-26T10:45:25;100203.56;;;13.99;41.06
30598;BME280;17365;48.878;8.334;2023-04-26T10:48:12;100193.53;;;13.60;41.73
30598;BME280;17365;48.878;8.334;2023-04-26T10:51:06;100201.16;;;12.56;42.36
30598;BME280;17365;48.878;8.334;2023-04-26T10:53:22;100201.41;;;13.54;42.72
30598;BME280;17365;48.878;8.334;2023-04-26T10:55:47;100197.44;;;14.05;40.67
30598;BME280;17365;48.878;8.334;2023-04-26T10:58:25;100184.00;;;14.36;40.71
30598;BME280;17365;48.878;8.334;2023-04-26T11:01:04;100182.06;;;14.54;40.13
30598;BME280;17365;48.878;8.334;2023-04-26T11:03:30;100174.53;;;14.93;39.88
30598;BME280;17365;48.878;8.334;2023-04-26T11:05:55;100162.22;;;15.01;38.59
30598;BME280;17365;48.878;8.334;2023-04-26T11:08:27;100149.16;;;15.54;39.67
30598;BME280;17365;48.878;8.334;2023-04-26T11:13:41;100141.84;;;15.23;38.12
30598;BME280;17365;48.878;8.334;2023-04-26T11:16:08;100141.78;;;14.74;38.32
30598;BME280;17365;48.878;8.334;2023-04-26T11:18:33;100147.28;;;13.77;40.68
30598;BME280;17365;48.878;8.334;2023-04-26T11:20:59;100141.03;;;15.20;38.14
30598;BME280;17365;48.878;8.334;2023-04-26T11:23:26;100144.84;;;15.53;37.47
30598;BME280;17365;48.878;8.334;2023-04-26T11:25:52;100135.41;;;14.90;38.20
30598;BME280;17365;48.878;8.334;2023-04-26T11:28:19;100128.75;;;15.76;37.38
30598;BME280;17365;48.878;8.334;2023-04-26T11:30:47;100136.94;;;15.03;38.41
30598;BME280;17365;48.878;8.334;2023-04-26T11:33:16;100128.75;;;14.72;38.59
30598;BME280;17365;48.878;8.334;2023-04-26T11:35:42;100126.47;;;15.05;38.28
30598;BME280;17365;48.878;8.334;2023-04-26T11:38:08;100120.38;;;15.04;38.39
30598;BME280;17365;48.878;8.334;2023-04-26T11:40:33;100112.44;;;15.63;37.12
30598;BME280;17365;48.878;8.334;2023-04-26T11:43:01;100114.25;;;15.56;37.96
30598;BME280;17365;48.878;8.334;2023-04-26T11:45:26;100114.25;;;16.02;36.46
30598;BME280;17365;48.878;8.334;2023-04-26T11:47:52;100107.00;;;15.72;36.69
30598;BME280;17365;48.878;8.334;2023-04-26T11:50:17;100112.50;;;16.03;36.75
30598;BME280;17365;48.878;8.334;2023-04-26T11:52:42;100102.81;;;15.65;36.73
30598;BME280;17365;48.878;8.334;2023-04-26T11:55:08;100109.13;;;14.41;37.86
30598;BME280;17365;48.878;8.334;2023-04-26T11:57:34;100109.03;;;14.51;37.22
30598;BME280;17365;48.878;8.334;2023-04-26T12:00:15;100106.97;;;15.24;38.77
30598;BME280;17365;48.878;8.334;2023-04-26T12:02:43;100108.19;;;15.54;35.91
30598;BME280;17365;48.878;8.334;2023-04-26T12:05:10;100114.50;;;14.30;38.09
30598;BME280;17365;48.878;8.334;2023-04-26T12:07:35;100112.16;;;14.75;39.46
30598;BME280;17365;48.878;8.334;2023-04-26T12:10:16;100114.25;;;15.56;37.67
30598;BME280;17365;48.878;8.334;2023-04-26T12:12:42;100108.81;;;15.19;38.20
30598;BME280;17365;48.878;8.334;2023-04-26T12:15:09;100117.44;;;14.70;39.36
30598;BME280;17365;48.878;8.334;2023-04-26T12:17:34;100115.41;;;14.26;38.66
30598;BME280;17365;48.878;8.334;2023-04-26T12:20:07;100108.22;;;14.43;38.79
30598;BME280;17365;48.878;8.334;2023-04-26T12:22:32;100107.66;;;14.21;39.13
30598;BME280;17365;48.878;8.334;2023-04-26T12:25:04;100109.22;;;14.96;37.78
30598;BME280;17365;48.878;8.334;2023-04-26T12:27:30;100107.25;;;15.09;36.85
30598;BME280;17365;48.878;8.334;2023-04-26T12:29:58;100102.84;;;13.88;39.31
30598;BME280;17365;48.878;8.334;2023-04-26T12:32:24;100100.84;;;14.10;39.91
30598;BME280;17365;48.878;8.334;2023-04-26T12:34:49;100089.97;;;15.00;37.68
30598;BME280;17365;48.878;8.334;2023-04-26T12:37:15;100092.97;;;15.30;37.57
30598;BME280;17365;48.878;8.334;2023-04-26T12:39:40;100091.69;;;15.51;37.40
30598;BME280;17365;48.878;8.334;2023-04-26T12:42:05;100086.84;;;15.79;36.63
30598;BME280;17365;48.878;8.334;2023-04-26T12:44:30;100094.78;;;14.72;37.28
30598;BME280;17365;48.878;8.334;2023-04-26T12:46:56;100095.72;;;14.02;39.22
30598;BME280;17365;48.878;8.334;2023-04-26T12:49:21;100091.13;;;14.82;38.58
30598;BME280;17365;48.878;8.334;2023-04-26T12:51:46;100104.53;;;13.92;39.53
30598;BME280;17365;48.878;8.334;2023-04-26T12:54:11;100091.94;;;14.24;40.54
30598;BME280;17365;48.878;8.334;2023-04-26T12:56:37;100095.97;;;14.51;39.06